sensor_id;sensor_type;location;lat;lon;timestamp;pressure;altitude;pressure_sealevel;temperature;humidity
55932;BME280;41837;55.700;37.984;2023-10-19T00:01:55;99225.56;;;2.33;100.00
55932;BME280;41837;55.700;37.984;2023-10-19T00:04:22;99226.56;;;2.26;100.00
55932;BME280;41837;55.700;37.984;2023-10-19T00:06:48;99221.44;;;2.23;100.00
55932;BME280;41837;55.700;37.984;2023-10-19T00:09:15;99221.47;;;2.21;100.00
55932;BME280;41837;55.700;37.984;2023-10-19T00:11:41;99220.53;;;2.26;100.00
55932;BME280;41837;55.700;37.984;2023-10-19T00:14:08;99224.81;;;2.27;100.00
55932;BME280;41837;55.700;37.984;2023-10-19T00:16:44;99224.03;;;2.21;100.00
55932;BME280;41837;55.700;37.984;2023-10-19T00:19:26;99229.19;;;2.21;100.00
55932;BME280;41837;55.700;37.984;2023-10-19T00:21:53;99224.88;;;2.22;100.00
55932;BME280;41837;55.700;37.984;2023-10-19T00:24:34;99229.22;;;2.20;100.00
55932;BME280;41837;55.700;37.984;2023-10-19T00:27:01;99224.88;;;2.23;100.00
55932;BME280;41837;55.700;37.984;2023-10-19T00:29:38;99218.81;;;2.26;100.00
55932;BME280;41837;55.700;37.984;2023-10-19T00:32:11;99220.59;;;2.22;100.00
55932;BME280;41837;55.700;37.984;2023-10-19T00:34:40;99222.44;;;2.16;100.00
55932;BME280;41837;55.700;37.984;2023-10-19T00:37:12;99224.06;;;2.20;100.00
55932;BME280;41837;55.700;37.984;2023-10-19T00:39:44;99215.50;;;2.19;100.00
55932;BME280;41837;55.700;37.984;2023-10-19T00:42:16;99220.63;;;2.21;100.00
55932;BME280;41837;55.700;37.984;2023-10-19T00:44:50;99221.56;;;2.15;100.00
55932;BME280;41837;55.700;37.984;2023-10-19T00:47:16;99223.28;;;2.16;100.00
55932;BME280;41837;55.700;37.984;2023-10-19T00:49:50;99220.66;;;2.19;100.00
55932;BME280;41837;55.700;37.984;2023-10-19T00:52:16;99219.06;;;2.12;100.00
55932;BME280;41837;55.700;37.984;2023-10-19T00:54:46;99219.91;;;2.13;100.00
55932;BME280;41837;55.700;37.984;2023-10-19T00:57:13;99222.47;;;2.13;100.00
55932;BME280;41837;55.700;37.984;2023-10-19T00:59:46;99217.28;;;2.16;100.00
55932;BME280;41837;55.700;37.984;2023-10-19T01:02:22;99222.53;;;2.10;100.00
55932;BME280;41837;55.700;37.984;2023-10-19T01:04:52;99223.34;;;2.12;100.00
55932;BME280;41837;55.700;37.984;2023-10-19T01:07:34;99223.41;;;2.09;100.00
55932;BME280;41837;55.700;37.984;2023-10-19T01:10:11;99220.78;;;2.10;100.00
55932;BME280;41837;55.700;37.984;2023-10-19T01:12:47;99213.81;;;2.17;100.00
55932;BME280;41837;55.700;37.984;2023-10-19T01:15:14;99213.09;;;2.09;100.00
55932;BME280;41837;55.700;37.984;2023-10-19T01:17:41;99211.38;;;2.09;100.00
55932;BME280;41837;55.700;37.984;2023-10-19T01:20:14;99217.38;;;2.10;100.00
55932;BME280;41837;55.700;37.984;2023-10-19T01:23:01;99214.69;;;2.16;100.00
55932;BME280;41837;55.700;37.984;2023-10-19T01:28:08;99216.53;;;2.09;100.00
55932;BME280;41837;55.700;37.984;2023-10-19T01:30:38;99212.13;;;2.16;100.00
55932;BME280;41837;55.700;37.984;2023-10-19T01:33:04;99211.28;;;2.14;100.00
55932;BME280;41837;55.700;37.984;2023-10-19T01:35:35;99219.91;;;2.13;100.00
55932;BME280;41837;55.700;37.984;2023-10-19T01:38:19;99218.16;;;2.15;100.00
55932;BME280;41837;55.700;37.984;2023-10-19T01:40:45;99222.44;;;2.16;100.00
55932;BME280;41837;55.700;37.984;2023-10-19T01:43:17;99216.50;;;2.11;100.00
55932;BME280;41837;55.700;37.984;2023-10-19T01:45:56;99208.75;;;2.12;100.00
55932;BME280;41837;55.700;37.984;2023-10-19T01:48:22;99213.03;;;2.12;100.00
55932;BME280;41837;55.700;37.984;2023-10-19T01:50:59;99213.81;;;2.17;100.00
55932;BME280;41837;55.700;37.984;2023-10-19T01:53:25;99217.19;;;2.19;100.00
55932;BME280;41837;55.700;37.984;2023-10-19T01:55:51;99218.09;;;2.18;100.00
55932;BME280;41837;55.700;37.984;2023-10-19T01:58:25;99217.31;;;2.13;100.00
55932;BME280;41837;55.700;37.984;2023-10-19T02:00:52;99212.97;;;2.16;100.00
55932;BME280;41837;55.700;37.984;2023-10-19T02:03:26;99203.50;;;2.15;100.00
55932;BME280;41837;55.700;37.984;2023-10-19T02:05:58;99209.53;;;2.16;100.00
55932;BME280;41837;55.700;37.984;2023-10-19T02:08:27;99202.69;;;2.13;100.00
55932;BME280;41837;55.700;37.984;2023-10-19T02:10:54;99207.84;;;2.13;100.00
55932;BME280;41837;55.700;37.984;2023-10-19T02:13:21;99213.91;;;2.12;100.00
55932;BME280;41837;55.700;37.984;2023-10-19T02:15:47;99202.78;;;2.09;100.00
55932;BME280;41837;55.700;37.984;2023-10-19T02:18:13;99198.47;;;2.11;100.00
55932;BME280;41837;55.700;37.984;2023-10-19T02:20:40;99199.31;;;2.10;100.00
55932;BME280;41837;55.700;37.984;2023-10-19T02:23:07;99200.97;;;2.14;100.00
55932;BME280;41837;55.700;37.984;2023-10-19T02:25:34;99203.50;;;2.15;100.00
55932;BME280;41837;55.700;37.984;2023-10-19T02:28:05;99213.84;;;2.14;100.00
55932;BME280;41837;55.700;37.984;2023-10-19T02:30:35;99206.88;;;2.19;100.00
55932;BME280;41837;55.700;37.984;2023-10-19T02:33:01;99209.41;;;2.22;100.00
55932;BME280;41837;55.700;37.984;2023-10-19T02:35:29;99212.13;;;2.16;100.00
55932;BME280;41837;55.700;37.984;2023-10-19T02:37:56;99209.59;;;2.13;100.00
55932;BME280;41837;55.700;37.984;2023-10-19T02:40:22;99206.13;;;2.14;100.00
55932;BME280;41837;55.700;37.984;2023-10-19T02:42:50;99213.00;;;2.13;100.00
55932;BME280;41837;55.700;37.984;2023-10-19T02:45:17;99210.47;;;2.10;100.00
55932;BME280;41837;55.700;37.984;2023-10-19T02:47:44;99206.88;;;2.19;100.00
55932;BME280;41837;55.700;37.984;2023-10-19T02:50:11;99210.41;;;2.15;100.00
55932;BME280;41837;55.700;37.984;2023-10-19T02:52:42;99208.69;;;2.14;100.00
55932;BME280;41837;55.700;37.984;2023-10-19T02:55:12;99212.94;;;2.18;100.00
55932;BME280;41837;55.700;37.984;2023-10-19T02:57:38;99207.88;;;2.12;100.00
55932;BME280;41837;55.700;37.984;2023-10-19T03:00:05;99212.16;;;2.14;100.00
55932;BME280;41837;55.700;37.984;2023-10-19T03:02:40;99212.09;;;2.17;100.00
55932;BME280;41837;55.700;37.984;2023-10-19T03:05:08;99207.75;;;2.19;100.00
55932;BME280;41837;55.700;37.984;2023-10-19T03:07:41;99210.44;;;2.13;100.00
55932;BME280;41837;55.700;37.984;2023-10-19T03:10:11;99203.63;;;2.09;100.00
55932;BME280;41837;55.700;37.984;2023-10-19T03:12:50;99195.88;;;2.11;100.00
55932;BME280;41837;55.700;37.984;2023-10-19T03:15:17;99214.72;;;2.14;100.00
55932;BME280;41837;55.700;37.984;2023-10-19T03:17:50;99206.09;;;2.15;100.00
55932;BME280;41837;55.700;37.984;2023-10-19T03:20:16;99200.09;;;2.15;100.00
55932;BME280;41837;55.700;37.984;2023-10-19T03:22:49;99202.66;;;2.15;100.00
55932;BME280;41837;55.700;37.984;2023-10-19T03:25:16;99200.13;;;2.12;100.00
55932;BME280;41837;55.700;37.984;2023-10-19T03:28:01;99194.09;;;2.14;100.00
55932;BME280;41837;55.700;37.984;2023-10-19T03:30:42;99199.25;;;2.14;100.00
55932;BME280;41837;55.700;37.984;2023-10-19T03:33:08;99204.41;;;2.14;100.00
55932;BME280;41837;55.700;37.984;2023-10-19T03:35:38;99198.31;;;2.18;100.00
55932;BME280;41837;55.700;37.984;2023-10-19T03:38:07;99200.00;;;2.21;100.00
55932;BME280;41837;55.700;37.984;2023-10-19T03:40:40;99203.34;;;2.26;100.00
55932;BME280;41837;55.700;37.984;2023-10-19T03:43:07;99205.16;;;2.21;100.00
55932;BME280;41837;55.700;37.984;2023-10-19T03:45:44;99205.03;;;2.27;100.00
55932;BME280;41837;55.700;37.984;2023-10-19T03:48:19;99209.38;;;2.25;100.00
55932;BME280;41837;55.700;37.984;2023-10-19T03:51:06;99212.78;;;2.26;100.00
55932;BME280;41837;55.700;37.984;2023-10-19T03:53:38;99212.03;;;2.19;100.00
55932;BME280;41837;55.700;37.984;2023-10-19T03:56:04;99214.63;;;2.19;100.00
55932;BME280;41837;55.700;37.984;2023-10-19T03:58:37;99212.97;;;2.16;100.00
55932;BME280;41837;55.700;37.984;2023-10-19T04:01:04;99212.13;;;2.16;100.00
55932;BME280;41837;55.700;37.984;2023-10-19T04:03:30;99210.34;;;2.18;100.00
55932;BME280;41837;55.700;37.984;2023-10-19T04:05:56;99210.34;;;2.18;100.00
55932;BME280;41837;55.700;37.984;2023-10-19T04:08:27;99215.38;;;2.26;100.00
55932;BME280;41837;55.700;37.984;2023-10-19T04:10:57;99218.78;;;2.29;100.00
55932;BME280;41837;55.700;37.984;2023-10-19T04:13:38;99217.09;;;2.25;100.00
55932;BME280;41837;55.700;37.984;2023-10-19T04:16:04;99205.16;;;2.21;100.00
55932;BME280;41837;55.700;37.984;2023-10-19T04:18:36;99218.06;;;2.21;100.00
55932;BME280;41837;55.700;37.984;2023-10-19T04:21:04;99215.50;;;2.18;100.00
55932;BME280;41837;55.700;37.984;2023-10-19T04:23:29;99214.56;;;2.22;100.00
55932;BME280;41837;55.700;37.984;2023-10-19T04:26:00;99222.34;;;2.19;100.00
55932;BME280;41837;55.700;37.984;2023-10-19T04:28:32;99218.03;;;2.22;100.00
55932;BME280;41837;55.700;37.984;2023-10-19T04:31:18;99225.78;;;2.21;100.00
55932;BME280;41837;55.700;37.984;2023-10-19T04:33:48;99224.03;;;2.23;100.00
55932;BME280;41837;55.700;37.984;2023-10-19T04:36:15;99224.03;;;2.23;100.00
55932;BME280;41837;55.700;37.984;2023-10-19T04:38:41;99217.16;;;2.22;100.00
55932;BME280;41837;55.700;37.984;2023-10-19T04:41:10;99217.06;;;2.27;100.00
55932;BME280;41837;55.700;37.984;2023-10-19T04:43:37;99224.06;;;2.20;100.00
55932;BME280;41837;55.700;37.984;2023-10-19T04:46:05;99232.56;;;2.25;100.00
55932;BME280;41837;55.700;37.984;2023-10-19T04:48:34;99225.66;;;2.27;100.00
55932;BME280;41837;55.700;37.984;2023-10-19T04:51:02;99218.69;;;2.32;100.00
55932;BME280;41837;55.700;37.984;2023-10-19T04:53:30;99226.44;;;2.31;100.00
55932;BME280;41837;55.700;37.984;2023-10-19T04:55:57;99224.63;;;2.36;100.00
55932;BME280;41837;55.700;37.984;2023-10-19T04:58:23;99219.59;;;2.30;100.00
55932;BME280;41837;55.700;37.984;2023-10-19T05:00:50;99224.63;;;2.36;100.00
55932;BME280;41837;55.700;37.984;2023-10-19T05:03:16;99225.53;;;2.35;100.00
55932;BME280;41837;55.700;37.984;2023-10-19T05:05:44;99221.22;;;2.35;100.00
55932;BME280;41837;55.700;37.984;2023-10-19T05:08:11;99220.22;;;2.42;100.00
55932;BME280;41837;55.700;37.984;2023-10-19T05:10:37;99223.66;;;2.43;100.00
55932;BME280;41837;55.700;37.984;2023-10-19T05:13:04;99223.66;;;2.43;100.00
55932;BME280;41837;55.700;37.984;2023-10-19T05:15:30;99216.88;;;2.37;100.00
55932;BME280;41837;55.700;37.984;2023-10-19T05:17:56;99233.97;;;2.45;100.00
55932;BME280;41837;55.700;37.984;2023-10-19T05:20:22;99230.44;;;2.49;100.00
55932;BME280;41837;55.700;37.984;2023-10-19T05:22:49;99238.94;;;2.54;100.00
55932;BME280;41837;55.700;37.984;2023-10-19T05:25:16;99238.94;;;2.54;100.00
55932;BME280;41837;55.700;37.984;2023-10-19T05:27:43;99233.88;;;2.48;100.00
55932;BME280;41837;55.700;37.984;2023-10-19T05:30:11;99238.06;;;2.56;100.00
55932;BME280;41837;55.700;37.984;2023-10-19T05:32:37;99238.81;;;2.61;100.00
55932;BME280;41837;55.700;37.984;2023-10-19T05:35:04;99237.19;;;2.56;100.00
55932;BME280;41837;55.700;37.984;2023-10-19T05:37:31;99229.47;;;2.54;100.00
55932;BME280;41837;55.700;37.984;2023-10-19T05:39:57;99232.84;;;2.58;100.00
55932;BME280;41837;55.700;37.984;2023-10-19T05:42:23;99240.56;;;2.58;100.00
55932;BME280;41837;55.700;37.984;2023-10-19T05:44:49;99236.03;;;2.71;100.00
55932;BME280;41837;55.700;37.984;2023-10-19T05:47:16;99238.63;;;2.71;100.00
55932;BME280;41837;55.700;37.984;2023-10-19T05:49:41;99235.28;;;2.66;100.00
55932;BME280;41837;55.700;37.984;2023-10-19T05:52:07;99235.31;;;2.64;100.00
55932;BME280;41837;55.700;37.984;2023-10-19T05:54:34;99244.84;;;2.60;100.00
55932;BME280;41837;55.700;37.984;2023-10-19T05:57:00;99248.19;;;2.66;100.00
55932;BME280;41837;55.700;37.984;2023-10-19T05:59:26;99239.41;;;2.74;100.00
55932;BME280;41837;55.700;37.984;2023-10-19T06:01:55;99240.31;;;2.73;100.00
55932;BME280;41837;55.700;37.984;2023-10-19T06:04:22;99242.78;;;2.78;100.00
55932;BME280;41837;55.700;37.984;2023-10-19T06:06:48;99246.19;;;2.80;100.00
55932;BME280;41837;55.700;37.984;2023-10-19T06:09:15;99242.75;;;2.79;100.00
55932;BME280;41837;55.700;37.984;2023-10-19T06:11:41;99233.81;;;2.97;100.00
55932;BME280;41837;55.700;37.984;2023-10-19T06:14:11;99242.50;;;2.92;100.00
55932;BME280;41837;55.700;37.984;2023-10-19T06:16:37;99243.25;;;2.97;100.00
55932;BME280;41837;55.700;37.984;2023-10-19T06:19:04;99235.13;;;3.15;100.00
55932;BME280;41837;55.700;37.984;2023-10-19T06:21:30;99243.41;;;3.33;100.00
55932;BME280;41837;55.700;37.984;2023-10-19T06:23:57;99237.19;;;3.40;100.00
55932;BME280;41837;55.700;37.984;2023-10-19T06:26:23;99239.91;;;3.34;100.00
55932;BME280;41837;55.700;37.984;2023-10-19T06:28:50;99245.38;;;3.20;100.00
55932;BME280;41837;55.700;37.984;2023-10-19T06:31:16;99246.22;;;3.21;100.00
55932;BME280;41837;55.700;37.984;2023-10-19T06:33:43;99243.66;;;3.19;100.00
55932;BME280;41837;55.700;37.984;2023-10-19T06:36:09;99242.88;;;3.15;100.00
55932;BME280;41837;55.700;37.984;2023-10-19T06:38:35;99237.38;;;3.31;100.00
55932;BME280;41837;55.700;37.984;2023-10-19T06:41:12;99234.16;;;3.23;100.00
55932;BME280;41837;55.700;37.984;2023-10-19T06:43:39;99233.19;;;3.27;100.00
55932;BME280;41837;55.700;37.984;2023-10-19T06:46:05;99232.41;;;3.23;100.00
55932;BME280;41837;55.700;37.984;2023-10-19T06:48:32;99234.06;;;3.26;100.00
55932;BME280;41837;55.700;37.984;2023-10-19T06:50:58;99236.28;;;3.43;100.00
55932;BME280;41837;55.700;37.984;2023-10-19T06:53:25;99238.13;;;3.36;100.00
55932;BME280;41837;55.700;37.984;2023-10-19T06:55:52;99229.34;;;3.45;100.00
55932;BME280;41837;55.700;37.984;2023-10-19T06:58:18;99237.44;;;3.68;100.00
55932;BME280;41837;55.700;37.984;2023-10-19T07:00:48;99227.78;;;3.75;100.00
55932;BME280;41837;55.700;37.984;2023-10-19T07:03:22;99234.47;;;3.85;100.00
55932;BME280;41837;55.700;37.984;2023-10-19T07:05:51;99235.31;;;3.48;100.00
55932;BME280;41837;55.700;37.984;2023-10-19T07:08:19;99238.56;;;3.57;100.00
55932;BME280;41837;55.700;37.984;2023-10-19T07:10:47;99232.09;;;3.74;100.00
55932;BME280;41837;55.700;37.984;2023-10-19T07:13:15;99240.22;;;3.59;100.00
55932;BME280;41837;55.700;37.984;2023-10-19T07:15:44;99239.28;;;3.63;100.00
55932;BME280;41837;55.700;37.984;2023-10-19T07:18:10;99238.44;;;3.61;100.00
55932;BME280;41837;55.700;37.984;2023-10-19T07:20:38;99239.97;;;3.70;100.00
55932;BME280;41837;55.700;37.984;2023-10-19T07:23:04;99238.25;;;3.70;100.00
55932;BME280;41837;55.700;37.984;2023-10-19T07:25:48;99249.50;;;3.68;100.00
55932;BME280;41837;55.700;37.984;2023-10-19T07:29:05;99239.31;;;3.62;100.00
55932;BME280;41837;55.700;37.984;2023-10-19T07:31:33;99241.81;;;3.65;100.00
55932;BME280;41837;55.700;37.984;2023-10-19T07:33:59;99233.91;;;3.71;100.00
55932;BME280;41837;55.700;37.984;2023-10-19T07:36:25;99240.69;;;3.75;100.00
55932;BME280;41837;55.700;37.984;2023-10-19T07:38:50;99245.44;;;3.93;100.00
55932;BME280;41837;55.700;37.984;2023-10-19T07:41:17;99239.91;;;3.73;100.00
55932;BME280;41837;55.700;37.984;2023-10-19T07:43:44;99243.97;;;3.83;100.00
55932;BME280;41837;55.700;37.984;2023-10-19T07:46:10;99239.31;;;3.62;100.00
55932;BME280;41837;55.700;37.984;2023-10-19T07:48:37;99240.13;;;3.64;100.00
55932;BME280;41837;55.700;37.984;2023-10-19T07:51:04;99237.19;;;3.79;100.00
55932;BME280;41837;55.700;37.984;2023-10-19T07:53:30;99237.06;;;3.84;100.00
55932;BME280;41837;55.700;37.984;2023-10-19T07:55:57;99236.25;;;3.82;100.00
55932;BME280;41837;55.700;37.984;2023-10-19T07:58:23;99239.63;;;3.85;100.00
55932;BME280;41837;55.700;37.984;2023-10-19T08:00:50;99242.00;;;3.93;100.00
55932;BME280;41837;55.700;37.984;2023-10-19T08:03:19;99242.34;;;4.15;100.00
55932;BME280;41837;55.700;37.984;2023-10-19T08:05:46;99241.09;;;3.96;100.00
55932;BME280;41837;55.700;37.984;2023-10-19T08:08:12;99248.47;;;4.13;100.00
55932;BME280;41837;55.700;37.984;2023-10-19T08:10:39;99250.31;;;4.07;100.00
55932;BME280;41837;55.700;37.984;2023-10-19T08:13:05;99239.47;;;3.91;100.00
55932;BME280;41837;55.700;37.984;2023-10-19T08:15:30;99245.31;;;4.00;100.00
55932;BME280;41837;55.700;37.984;2023-10-19T08:17:57;99241.72;;;4.05;100.00
55932;BME280;41837;55.700;37.984;2023-10-19T08:20:26;99247.66;;;4.09;100.00
55932;BME280;41837;55.700;37.984;2023-10-19T08:22:56;99244.63;;;4.26;100.00
55932;BME280;41837;55.700;37.984;2023-10-19T08:25:23;99240.72;;;4.11;100.00
55932;BME280;41837;55.700;37.984;2023-10-19T08:27:49;99243.00;;;4.23;100.00
55932;BME280;41837;55.700;37.984;2023-10-19T08:30:26;99241.28;;;4.22;100.00
55932;BME280;41837;55.700;37.984;2023-10-19T08:32:55;99245.06;;;4.09;100.00
55932;BME280;41837;55.700;37.984;2023-10-19T08:35:24;99253.41;;;4.20;100.00
55932;BME280;41837;55.700;37.984;2023-10-19T08:37:53;99244.28;;;4.05;100.00
55932;BME280;41837;55.700;37.984;2023-10-19T08:40:19;99248.91;;;3.94;100.00
55932;BME280;41837;55.700;37.984;2023-10-19T08:42:47;99247.13;;;3.96;100.00
55932;BME280;41837;55.700;37.984;2023-10-19T08:45:14;99243.69;;;3.96;100.00
55932;BME280;41837;55.700;37.984;2023-10-19T08:50:13;99247.16;;;3.95;100.00
55932;BME280;41837;55.700;37.984;2023-10-19T08:52:41;99243.88;;;3.88;100.00
55932;BME280;41837;55.700;37.984;2023-10-19T08:55:08;99250.72;;;3.90;100.00
55932;BME280;41837;55.700;37.984;2023-10-19T08:57:35;99254.16;;;3.89;100.00
55932;BME280;41837;55.700;37.984;2023-10-19T09:00:02;99244.47;;;3.99;100.00
55932;BME280;41837;55.700;37.984;2023-10-19T09:02:32;99254.06;;;3.94;100.00
55932;BME280;41837;55.700;37.984;2023-10-19T09:04:58;99259.84;;;4.04;100.00
55932;BME280;41837;55.700;37.984;2023-10-19T09:07:25;99258.13;;;4.04;100.00
55932;BME280;41837;55.700;37.984;2023-10-19T09:09:56;99254.53;;;4.10;100.00
55932;BME280;41837;55.700;37.984;2023-10-19T09:12:23;99252.56;;;4.20;100.00
55932;BME280;41837;55.700;37.984;2023-10-19T09:14:49;99252.59;;;4.53;100.00
55932;BME280;41837;55.700;37.984;2023-10-19T09:17:16;99254.75;;;4.37;100.00
55932;BME280;41837;55.700;37.984;2023-10-19T09:19:54;99256.31;;;4.75;100.00
55932;BME280;41837;55.700;37.984;2023-10-19T09:22:21;99261.25;;;4.84;100.00
55932;BME280;41837;55.700;37.984;2023-10-19T09:24:51;99267.72;;;4.68;100.00
55932;BME280;41837;55.700;37.984;2023-10-19T09:27:19;99252.63;;;4.84;100.00
55932;BME280;41837;55.700;37.984;2023-10-19T09:29:46;99254.56;;;4.76;100.00
55932;BME280;41837;55.700;37.984;2023-10-19T09:32:13;99250.00;;;4.85;100.00
55932;BME280;41837;55.700;37.984;2023-10-19T09:34:39;99243.56;;;4.99;100.00
55932;BME280;41837;55.700;37.984;2023-10-19T09:37:09;99252.28;;;4.96;100.00
55932;BME280;41837;55.700;37.984;2023-10-19T09:39:36;99253.84;;;5.02;100.00
55932;BME280;41837;55.700;37.984;2023-10-19T09:42:06;99256.16;;;5.13;100.00
55932;BME280;41837;55.700;37.984;2023-10-19T09:44:42;99250.75;;;4.89;100.00
55932;BME280;41837;55.700;37.984;2023-10-19T09:47:10;99248.28;;;4.84;100.00
55932;BME280;41837;55.700;37.984;2023-10-19T09:49:36;99259.97;;;4.66;100.00
55932;BME280;41837;55.700;37.984;2023-10-19T09:52:03;99256.72;;;4.60;100.00
55932;BME280;41837;55.700;37.984;2023-10-19T09:55:07;99259.69;;;4.79;100.00
55932;BME280;41837;55.700;37.984;2023-10-19T10:00:05;99256.63;;;4.63;100.00
55932;BME280;41837;55.700;37.984;2023-10-19T10:02:44;99253.53;;;4.50;100.00
55932;BME280;41837;55.700;37.984;2023-10-19T10:10:43;99257.50;;;4.63;100.00
55932;BME280;41837;55.700;37.984;2023-10-19T10:15:56;99267.69;;;4.37;100.00
55932;BME280;41837;55.700;37.984;2023-10-19T10:18:23;99275.41;;;4.38;100.00
55932;BME280;41837;55.700;37.984;2023-10-19T10:21:04;99272.84;;;4.37;100.00
55932;BME280;41837;55.700;37.984;2023-10-19T10:23:31;99282.25;;;4.39;100.00
55932;BME280;41837;55.700;37.984;2023-10-19T10:26:00;99282.50;;;4.30;100.00
55932;BME280;41837;55.700;37.984;2023-10-19T10:28:26;99278.41;;;4.21;100.00
55932;BME280;41837;55.700;37.984;2023-10-19T10:31:12;99279.16;;;4.26;100.00
55932;BME280;41837;55.700;37.984;2023-10-19T10:33:39;99271.50;;;4.22;100.00
55932;BME280;41837;55.700;37.984;2023-10-19T10:36:06;99269.69;;;4.25;100.00
55932;BME280;41837;55.700;37.984;2023-10-19T10:38:35;99271.69;;;4.14;100.00
55932;BME280;41837;55.700;37.984;2023-10-19T10:41:01;99268.28;;;4.12;100.00
55932;BME280;41837;55.700;37.984;2023-10-19T10:43:27;99270.22;;;4.38;100.00
55932;BME280;41837;55.700;37.984;2023-10-19T10:46:04;99271.69;;;4.48;100.00
55932;BME280;41837;55.700;37.984;2023-10-19T10:48:30;99276.16;;;4.75;100.00
55932;BME280;41837;55.700;37.984;2023-10-19T10:50:56;99272.13;;;4.32;100.00
55932;BME280;41837;55.700;37.984;2023-10-19T10:53:23;99271.84;;;4.42;100.00
55932;BME280;41837;55.700;37.984;2023-10-19T10:55:50;99267.03;;;4.61;100.00
55932;BME280;41837;55.700;37.984;2023-10-19T10:58:17;99261.84;;;4.61;100.00
55932;BME280;41837;55.700;37.984;2023-10-19T11:00:44;99259.34;;;4.91;100.00
55932;BME280;41837;55.700;37.984;2023-10-19T11:03:12;99266.59;;;5.68;100.00
55932;BME280;41837;55.700;37.984;2023-10-19T11:05:40;99254.06;;;5.24;100.00
55932;BME280;41837;55.700;37.984;2023-10-19T11:08:09;99260.09;;;5.54;100.00
55932;BME280;41837;55.700;37.984;2023-10-19T11:10:39;99259.22;;;5.55;100.00
55932;BME280;41837;55.700;37.984;2023-10-19T11:13:06;99262.47;;;5.62;100.00
55932;BME280;41837;55.700;37.984;2023-10-19T11:15:33;99262.56;;;5.29;100.00
55932;BME280;41837;55.700;37.984;2023-10-19T11:18:00;99272.75;;;5.65;100.00
55932;BME280;41837;55.700;37.984;2023-10-19T11:20:27;99263.31;;;5.63;100.00
55932;BME280;41837;55.700;37.984;2023-10-19T11:22:55;99274.19;;;5.46;100.00
55932;BME280;41837;55.700;37.984;2023-10-19T11:25:25;99260.72;;;5.33;100.00
55932;BME280;41837;55.700;37.984;2023-10-19T11:27:57;99270.97;;;5.08;100.00
55932;BME280;41837;55.700;37.984;2023-10-19T11:30:24;99272.59;;;5.10;100.00
55932;BME280;41837;55.700;37.984;2023-10-19T11:32:51;99269.63;;;4.94;100.00
55932;BME280;41837;55.700;37.984;2023-10-19T11:35:26;99274.81;;;5.24;100.00
55932;BME280;41837;55.700;37.984;2023-10-19T11:37:53;99270.09;;;5.38;100.00
55932;BME280;41837;55.700;37.984;2023-10-19T11:40:20;99268.78;;;5.23;100.00
55932;BME280;41837;55.700;37.984;2023-10-19T11:42:48;99261.09;;;5.20;100.00
55932;BME280;41837;55.700;37.984;2023-10-19T11:45:14;99251.56;;;5.21;100.00
55932;BME280;41837;55.700;37.984;2023-10-19T11:47:44;99260.50;;;5.11;100.00
55932;BME280;41837;55.700;37.984;2023-10-19T11:50:11;99259.53;;;5.15;100.00
55932;BME280;41837;55.700;37.984;2023-10-19T11:52:45;99263.81;;;5.16;100.00
55932;BME280;41837;55.700;37.984;2023-10-19T11:55:15;99257.56;;;5.23;100.00
55932;BME280;41837;55.700;37.984;2023-10-19T11:57:44;99258.44;;;4.92;100.00
55932;BME280;41837;55.700;37.984;2023-10-19T12:00:13;99255.44;;;4.75;100.00
55932;BME280;41837;55.700;37.984;2023-10-19T12:02:45;99260.44;;;5.12;100.00
55932;BME280;41837;55.700;37.984;2023-10-19T12:05:11;99254.16;;;4.91;100.00
55932;BME280;41837;55.700;37.984;2023-10-19T12:07:37;99253.84;;;5.02;100.00
55932;BME280;41837;55.700;37.984;2023-10-19T12:10:09;99254.31;;;4.85;100.00
55932;BME280;41837;55.700;37.984;2023-10-19T12:12:36;99262.13;;;5.15;100.00
55932;BME280;41837;55.700;37.984;2023-10-19T12:15:03;99261.09;;;5.20;100.00
55932;BME280;41837;55.700;37.984;2023-10-19T12:17:31;99263.53;;;4.95;100.00
55932;BME280;41837;55.700;37.984;2023-10-19T12:19:57;99253.31;;;4.91;100.00
55932;BME280;41837;55.700;37.984;2023-10-19T12:22:23;99251.47;;;4.94;100.00
55932;BME280;41837;55.700;37.984;2023-10-19T12:24:54;99257.53;;;4.93;100.00
55932;BME280;41837;55.700;37.984;2023-10-19T12:27:22;99271.06;;;4.72;100.00
55932;BME280;41837;55.700;37.984;2023-10-19T12:29:50;99271.06;;;4.72;100.00
55932;BME280;41837;55.700;37.984;2023-10-19T12:32:20;99273.03;;;4.63;100.00
55932;BME280;41837;55.700;37.984;2023-10-19T12:34:48;99270.97;;;4.43;100.00
55932;BME280;41837;55.700;37.984;2023-10-19T12:37:21;99275.94;;;4.51;100.00
55932;BME280;41837;55.700;37.984;2023-10-19T12:39:47;99275.97;;;4.49;100.00
55932;BME280;41837;55.700;37.984;2023-10-19T12:42:15;99285.25;;;4.58;100.00
55932;BME280;41837;55.700;37.984;2023-10-19T12:44:41;99283.09;;;4.41;100.00
55932;BME280;41837;55.700;37.984;2023-10-19T12:47:10;99283.03;;;4.43;100.00
55932;BME280;41837;55.700;37.984;2023-10-19T12:49:40;99279.78;;;4.36;100.00
55932;BME280;41837;55.700;37.984;2023-10-19T12:52:09;99275.41;;;4.38;100.00
55932;BME280;41837;55.700;37.984;2023-10-19T12:54:36;99278.38;;;4.23;100.00
55932;BME280;41837;55.700;37.984;2023-10-19T12:57:04;99276.63;;;4.23;100.00
55932;BME280;41837;55.700;37.984;2023-10-19T12:59:35;99280.84;;;4.27;100.00
55932;BME280;41837;55.700;37.984;2023-10-19T13:02:05;99276.63;;;4.23;100.00
55932;BME280;41837;55.700;37.984;2023-10-19T13:04:36;99277.72;;;4.15;100.00
55932;BME280;41837;55.700;37.984;2023-10-19T13:07:02;99277.69;;;4.16;100.00
55932;BME280;41837;55.700;37.984;2023-10-19T13:09:29;99280.44;;;4.08;100.00
55932;BME280;41837;55.700;37.984;2023-10-19T13:11:59;99280.59;;;4.02;100.00
55932;BME280;41837;55.700;37.984;2023-10-19T13:14:26;99278.94;;;4.00;100.00
55932;BME280;41837;55.700;37.984;2023-10-19T13:16:53;99290.00;;;4.05;100.00